Pagrindinis puslapis
METAR-TAF:

METAR-TAF

Oro uostai :

Weipa, Australija

platuma: 12-40-43S, ilguma: 141-55-31E, Aukštis: 19 m

Dabartinis oras

Ataskaita buvo paskelbta 52 minutes, ne 03:00 UTC
Vėjas 6 kt iš Vakarų
Temperatūra 31°C
Drėgmė 66%
Slėgis 1007 hPa
Matomumas 10 km arba daugiau
Išsisklaidę debesys ne aukštis 4500 ft
Apsiniaukę ne aukštis 9500 ft

METAR: YBWP 290300Z AUTO 26006KT 9999 // SCT045 OVC095 31/24 Q1007

Laikas: 13:52 (03:52 UTC)


TAF: trūkstamas

Orai ataskaitas ir orų prognozės (METAR, TAF).

turimą stotys yra geltonos ir raudonos taškus žemėlapyje.

Perkelti pele per norėdami pamatyti stoties vardą.

Tada spustelėkite, norėdami matyti oro stebėjimo ir prognozės.

Norėdami pakeisti žemėlapį: spustelėkite ant žalios mygtukų su juodo kryžiaus žemyn,; žalią mygtuką su brūkšneliu, jei norite nutolinti; arba žalių rodyklių gretimoms žemėlapius.


METAR-TAF: